NAO YMHB-YMMB
Flight info
| Callsign | NAO |
|---|---|
| Flight time | 1h 29m |
| Altitude | 26000 |
| Route | TASUM H111 LT H215 ONAGI DCT MMBNF DCT MMBNM |
| Aircraft | B350/L-SDFGRW/S |
Departure
| Time | 2026-05-05 22:47 |
|---|---|
| Airport | Hobart International Airport (YMHB) |
Arrival
| Time | 2026-05-06 00:17 |
|---|---|
| Airport | Melbourne Moorabbin Airport (YMMB) |
| Time | Latitude | Longitude | Altitude | Speed | Heading |
|---|---|---|---|---|---|
| 2026-05-05 22:32 | -42.83933 | 147.50757 | 17 ft | 0 kts | 91° |
| 2026-05-05 22:37 | -42.83933 | 147.50760 | 17 ft | 1 kts | 90° |
| 2026-05-05 22:37 | -42.83933 | 147.50765 | 17 ft | 0 kts | 89° |
| 2026-05-05 22:37 | -42.83933 | 147.50766 | 17 ft | 1 kts | 89° |
| 2026-05-05 22:38 | -42.83928 | 147.50809 | 17 ft | 6 kts | 61° |
| 2026-05-05 22:38 | -42.83902 | 147.50852 | 18 ft | 6 kts | 46° |
| 2026-05-05 22:38 | -42.83878 | 147.50896 | 19 ft | 5 kts | 74° |
| 2026-05-05 22:38 | -42.83886 | 147.50934 | 18 ft | 4 kts | 130° |
| 2026-05-05 22:39 | -42.83912 | 147.50973 | 19 ft | 7 kts | 133° |
| 2026-05-05 22:39 | -42.83948 | 147.51030 | 19 ft | 8 kts | 110° |
| 2026-05-05 22:39 | -42.83938 | 147.51089 | 19 ft | 5 kts | 58° |
| 2026-05-05 22:39 | -42.83918 | 147.51119 | 20 ft | 4 kts | 45° |
| 2026-05-05 22:40 | -42.83907 | 147.51134 | 20 ft | 3 kts | 45° |
| 2026-05-05 22:40 | -42.83900 | 147.51144 | 20 ft | 0 kts | 44° |
| 2026-05-05 22:40 | -42.83887 | 147.51160 | 23 ft | 5 kts | 44° |
| 2026-05-05 22:40 | -42.83851 | 147.51209 | 21 ft | 9 kts | 46° |
| 2026-05-05 22:41 | -42.83775 | 147.51313 | 19 ft | 14 kts | 51° |
| 2026-05-05 22:41 | -42.83776 | 147.51394 | 18 ft | 14 kts | 131° |
| 2026-05-05 22:41 | -42.83851 | 147.51497 | 15 ft | 16 kts | 135° |
| 2026-05-05 22:41 | -42.83928 | 147.51603 | 16 ft | 15 kts | 134° |
| 2026-05-05 22:42 | -42.84029 | 147.51743 | 16 ft | 15 kts | 134° |
| 2026-05-05 22:42 | -42.84075 | 147.51807 | 18 ft | 13 kts | 136° |
| 2026-05-05 22:42 | -42.84124 | 147.51870 | 19 ft | 7 kts | 136° |
| 2026-05-05 22:42 | -42.84142 | 147.51893 | 19 ft | 0 kts | 136° |
| 2026-05-05 22:44 | -42.84150 | 147.51904 | 19 ft | 7 kts | 137° |
| 2026-05-05 22:44 | -42.84202 | 147.51973 | 19 ft | 12 kts | 133° |
| 2026-05-05 22:45 | -42.84259 | 147.52056 | 21 ft | 12 kts | 133° |
| 2026-05-05 22:45 | -42.84317 | 147.52137 | 20 ft | 13 kts | 134° |
| 2026-05-05 22:45 | -42.84384 | 147.52232 | 18 ft | 15 kts | 137° |
| 2026-05-05 22:45 | -42.84469 | 147.52305 | 18 ft | 15 kts | 162° |
| 2026-05-05 22:46 | -42.84470 | 147.52335 | 17 ft | 0 kts | 310° |
| 2026-05-05 22:46 | -42.84278 | 147.52072 | 21 ft | 82 kts | 315° |
| 2026-05-05 22:46 | -42.83731 | 147.51327 | 111 ft | 131 kts | 316° |
| 2026-05-05 22:47 | -42.82999 | 147.50355 | 392 ft | 162 kts | 315° |
| 2026-05-05 22:47 | -42.82149 | 147.49188 | 681 ft | 183 kts | 315° |
| 2026-05-05 22:47 | -42.81225 | 147.47935 | 1101 ft | 191 kts | 315° |
| 2026-05-05 22:47 | -42.80268 | 147.46641 | 1551 ft | 195 kts | 315° |
| 2026-05-05 22:48 | -42.79236 | 147.45452 | 1988 ft | 196 kts | 331° |
| 2026-05-05 22:48 | -42.77890 | 147.45215 | 2440 ft | 208 kts | 6° |
| 2026-05-05 22:48 | -42.76570 | 147.46081 | 2882 ft | 213 kts | 26° |
| 2026-05-05 22:48 | -42.75339 | 147.47185 | 3317 ft | 211 kts | 24° |
| 2026-05-05 22:49 | -42.74101 | 147.48186 | 3854 ft | 203 kts | 21° |
| 2026-05-05 22:49 | -42.72892 | 147.49113 | 4420 ft | 197 kts | 19° |
| 2026-05-05 22:49 | -42.71707 | 147.50021 | 4969 ft | 193 kts | 18° |
| 2026-05-05 22:49 | -42.70551 | 147.50915 | 5521 ft | 190 kts | 17° |
| 2026-05-05 22:50 | -42.69428 | 147.51858 | 6075 ft | 190 kts | 20° |
| 2026-05-05 22:50 | -42.68298 | 147.52787 | 6558 ft | 190 kts | 18° |
| 2026-05-05 22:50 | -42.67164 | 147.53715 | 7061 ft | 191 kts | 19° |
| 2026-05-05 22:50 | -42.66022 | 147.54663 | 7548 ft | 193 kts | 18° |
| 2026-05-05 22:51 | -42.64870 | 147.55621 | 8058 ft | 194 kts | 18° |
| 2026-05-05 22:51 | -42.63731 | 147.56569 | 8554 ft | 194 kts | 18° |
| 2026-05-05 22:51 | -42.62575 | 147.57529 | 9076 ft | 195 kts | 18° |
| 2026-05-05 22:51 | -42.61417 | 147.58491 | 9599 ft | 194 kts | 18° |
| 2026-05-05 22:52 | -42.60258 | 147.59450 | 10098 ft | 196 kts | 18° |
| 2026-05-05 22:52 | -42.59078 | 147.60301 | 10584 ft | 184 kts | 2° |
| 2026-05-05 22:52 | -42.57874 | 147.60512 | 11080 ft | 168 kts | 345° |
| 2026-05-05 22:52 | -42.56776 | 147.60209 | 11584 ft | 156 kts | 329° |
| 2026-05-05 22:53 | -42.55844 | 147.59522 | 12089 ft | 151 kts | 320° |
| 2026-05-05 22:53 | -42.54947 | 147.58776 | 12600 ft | 151 kts | 322° |
| 2026-05-05 22:53 | -42.54055 | 147.58038 | 13117 ft | 150 kts | 321° |
| 2026-05-05 22:53 | -42.53176 | 147.57304 | 13645 ft | 150 kts | 322° |
| 2026-05-05 22:54 | -42.52293 | 147.56567 | 14124 ft | 149 kts | 322° |
| 2026-05-05 22:54 | -42.51415 | 147.55832 | 14599 ft | 148 kts | 322° |
| 2026-05-05 22:54 | -42.50543 | 147.55107 | 15079 ft | 146 kts | 322° |
| 2026-05-05 22:54 | -42.49683 | 147.54389 | 15571 ft | 144 kts | 322° |
| 2026-05-05 22:55 | -42.48833 | 147.53680 | 16058 ft | 142 kts | 322° |
| 2026-05-05 22:55 | -42.47992 | 147.52979 | 16569 ft | 141 kts | 322° |
| 2026-05-05 22:55 | -42.47165 | 147.52289 | 17074 ft | 138 kts | 322° |
| 2026-05-05 22:55 | -42.46330 | 147.51592 | 17471 ft | 144 kts | 323° |
| 2026-05-05 22:56 | -42.45461 | 147.50867 | 17871 ft | 149 kts | 323° |
| 2026-05-05 22:56 | -42.44568 | 147.50124 | 18268 ft | 152 kts | 323° |
| 2026-05-05 22:56 | -42.43664 | 147.49371 | 18622 ft | 154 kts | 323° |
| 2026-05-05 22:56 | -42.42748 | 147.48610 | 18980 ft | 155 kts | 323° |
| 2026-05-05 22:57 | -42.41838 | 147.47828 | 19337 ft | 154 kts | 318° |
| 2026-05-05 22:57 | -42.41197 | 147.46693 | 19720 ft | 155 kts | 296° |
| 2026-05-05 22:57 | -42.41039 | 147.45227 | 20104 ft | 165 kts | 275° |
| 2026-05-05 22:57 | -42.41417 | 147.43692 | 20489 ft | 182 kts | 254° |
| 2026-05-05 22:58 | -42.42308 | 147.42322 | 20762 ft | 208 kts | 233° |
| 2026-05-05 22:58 | -42.43649 | 147.41331 | 21035 ft | 233 kts | 212° |
| 2026-05-05 22:58 | -42.45289 | 147.40919 | 21303 ft | 254 kts | 192° |
| 2026-05-05 22:58 | -42.47099 | 147.41193 | 21579 ft | 270 kts | 172° |
| 2026-05-05 22:59 | -42.48865 | 147.42185 | 21853 ft | 281 kts | 152° |
| 2026-05-05 22:59 | -42.50521 | 147.43639 | 22126 ft | 283 kts | 154° |
| 2026-05-05 22:59 | -42.52316 | 147.44643 | 22401 ft | 277 kts | 174° |
| 2026-05-05 22:59 | -42.54188 | 147.44919 | 22673 ft | 265 kts | 194° |
| 2026-05-05 23:00 | -42.57426 | 147.43432 | 23245 ft | 231 kts | 233° |
| 2026-05-05 23:00 | -42.58483 | 147.41934 | 23525 ft | 211 kts | 252° |
| 2026-05-05 23:00 | -42.59035 | 147.40203 | 23777 ft | 191 kts | 272° |
| 2026-05-05 23:01 | -42.59051 | 147.38492 | 24029 ft | 175 kts | 291° |
| 2026-05-05 23:01 | -42.58570 | 147.37046 | 24279 ft | 166 kts | 311° |
| 2026-05-05 23:01 | -42.57715 | 147.36009 | 24530 ft | 166 kts | 327° |
| 2026-05-05 23:01 | -42.56598 | 147.35525 | 24783 ft | 175 kts | 346° |
| 2026-05-05 23:02 | -42.55360 | 147.35735 | 25041 ft | 191 kts | 5° |
| 2026-05-05 23:02 | -42.54101 | 147.36390 | 25286 ft | 193 kts | 5° |
| 2026-05-05 23:02 | -42.52834 | 147.36823 | 25531 ft | 184 kts | 356° |
| 2026-05-05 23:02 | -42.51571 | 147.37036 | 25779 ft | 182 kts | 354° |
| 2026-05-05 23:03 | -42.50302 | 147.37211 | 25952 ft | 186 kts | 354° |
| 2026-05-05 23:03 | -42.48972 | 147.37396 | 25958 ft | 197 kts | 355° |
| 2026-05-05 23:03 | -42.47577 | 147.37604 | 25971 ft | 205 kts | 355° |
| 2026-05-05 23:03 | -42.46128 | 147.37822 | 25971 ft | 213 kts | 356° |
| 2026-05-05 23:04 | -42.44632 | 147.38045 | 25974 ft | 219 kts | 356° |
| 2026-05-05 23:04 | -42.43098 | 147.38275 | 25969 ft | 224 kts | 356° |
| 2026-05-05 23:04 | -42.41532 | 147.38509 | 25974 ft | 228 kts | 356° |
| 2026-05-05 23:04 | -42.39942 | 147.38744 | 25978 ft | 232 kts | 356° |
| 2026-05-05 23:05 | -42.38332 | 147.38984 | 25975 ft | 234 kts | 356° |
| 2026-05-05 23:05 | -42.36713 | 147.39225 | 25978 ft | 234 kts | 356° |
| 2026-05-05 23:05 | -42.35084 | 147.39468 | 25977 ft | 236 kts | 356° |
| 2026-05-05 23:05 | -42.33465 | 147.39706 | 25976 ft | 238 kts | 356° |
| 2026-05-05 23:06 | -42.31827 | 147.39803 | 25984 ft | 232 kts | 346° |
| 2026-05-05 23:06 | -42.30245 | 147.39433 | 25982 ft | 231 kts | 342° |
| 2026-05-05 23:06 | -42.28663 | 147.39022 | 25982 ft | 232 kts | 343° |
| 2026-05-05 23:06 | -42.27072 | 147.38635 | 25980 ft | 233 kts | 343° |
| 2026-05-05 23:07 | -42.25473 | 147.38255 | 25980 ft | 234 kts | 343° |
| 2026-05-05 23:07 | -42.23866 | 147.37869 | 25984 ft | 234 kts | 343° |
| 2026-05-05 23:07 | -42.22259 | 147.37484 | 25988 ft | 235 kts | 343° |
| 2026-05-05 23:07 | -42.20648 | 147.37094 | 25988 ft | 235 kts | 343° |
| 2026-05-05 23:08 | -42.19033 | 147.36707 | 25988 ft | 236 kts | 343° |
| 2026-05-05 23:08 | -42.17411 | 147.36317 | 25988 ft | 236 kts | 343° |
| 2026-05-05 23:08 | -42.15791 | 147.35928 | 25996 ft | 236 kts | 343° |
| 2026-05-05 23:08 | -42.14170 | 147.35539 | 25994 ft | 237 kts | 343° |
| 2026-05-05 23:09 | -42.12547 | 147.35149 | 25988 ft | 237 kts | 343° |
| 2026-05-05 23:09 | -42.10919 | 147.34759 | 25990 ft | 237 kts | 343° |
| 2026-05-05 23:09 | -42.09292 | 147.34369 | 25987 ft | 237 kts | 344° |
| 2026-05-05 23:09 | -42.07663 | 147.33979 | 25989 ft | 237 kts | 344° |
| 2026-05-05 23:10 | -42.06033 | 147.33589 | 25987 ft | 238 kts | 343° |
| 2026-05-05 23:10 | -42.04425 | 147.33204 | 25992 ft | 238 kts | 344° |
| 2026-05-05 23:10 | -42.02794 | 147.32813 | 25989 ft | 238 kts | 344° |
| 2026-05-05 23:10 | -42.01161 | 147.32423 | 25988 ft | 238 kts | 343° |
| 2026-05-05 23:11 | -41.99527 | 147.32033 | 25988 ft | 239 kts | 344° |
| 2026-05-05 23:11 | -41.97890 | 147.31642 | 25986 ft | 239 kts | 344° |
| 2026-05-05 23:11 | -41.96251 | 147.31251 | 25987 ft | 239 kts | 344° |
| 2026-05-05 23:11 | -41.94612 | 147.30859 | 25988 ft | 239 kts | 344° |
| 2026-05-05 23:12 | -41.92968 | 147.30468 | 25989 ft | 240 kts | 344° |
| 2026-05-05 23:12 | -41.91321 | 147.30075 | 25985 ft | 240 kts | 344° |
| 2026-05-05 23:12 | -41.89694 | 147.29688 | 26001 ft | 240 kts | 344° |
| 2026-05-05 23:12 | -41.88049 | 147.29296 | 25990 ft | 241 kts | 344° |
| 2026-05-05 23:13 | -41.86397 | 147.28902 | 25995 ft | 241 kts | 344° |
| 2026-05-05 23:13 | -41.84747 | 147.28511 | 25998 ft | 241 kts | 344° |
| 2026-05-05 23:13 | -41.83100 | 147.28119 | 25997 ft | 241 kts | 344° |
| 2026-05-05 23:13 | -41.81445 | 147.27726 | 25999 ft | 241 kts | 344° |
| 2026-05-05 23:14 | -41.79797 | 147.27334 | 25999 ft | 241 kts | 344° |
| 2026-05-05 23:14 | -41.78146 | 147.26942 | 26005 ft | 241 kts | 344° |
| 2026-05-05 23:14 | -41.76493 | 147.26551 | 26009 ft | 241 kts | 344° |
| 2026-05-05 23:14 | -41.74844 | 147.26159 | 26005 ft | 241 kts | 344° |
| 2026-05-05 23:15 | -41.73192 | 147.25769 | 26007 ft | 241 kts | 344° |
| 2026-05-05 23:15 | -41.71537 | 147.25376 | 26018 ft | 241 kts | 344° |
| 2026-05-05 23:15 | -41.69901 | 147.24989 | 26009 ft | 242 kts | 344° |
| 2026-05-05 23:15 | -41.68244 | 147.24597 | 26010 ft | 242 kts | 344° |
| 2026-05-05 23:16 | -41.66586 | 147.24205 | 26016 ft | 242 kts | 344° |
| 2026-05-05 23:16 | -41.64929 | 147.23813 | 26014 ft | 242 kts | 344° |
| 2026-05-05 23:16 | -41.63273 | 147.23422 | 26010 ft | 242 kts | 344° |
| 2026-05-05 23:16 | -41.61614 | 147.23031 | 26014 ft | 242 kts | 344° |
| 2026-05-05 23:17 | -41.59956 | 147.22639 | 26010 ft | 242 kts | 344° |
| 2026-05-05 23:17 | -41.58302 | 147.22250 | 26012 ft | 242 kts | 344° |
| 2026-05-05 23:17 | -41.56639 | 147.21857 | 26011 ft | 242 kts | 344° |
| 2026-05-05 23:17 | -41.55002 | 147.21471 | 26011 ft | 242 kts | 344° |
| 2026-05-05 23:18 | -41.53412 | 147.20841 | 26018 ft | 237 kts | 334° |
| 2026-05-05 23:18 | -41.51893 | 147.19983 | 26017 ft | 237 kts | 334° |
| 2026-05-05 23:18 | -41.50366 | 147.19133 | 26016 ft | 237 kts | 334° |
| 2026-05-05 23:18 | -41.48835 | 147.18303 | 26018 ft | 238 kts | 334° |
| 2026-05-05 23:19 | -41.47303 | 147.17475 | 26016 ft | 238 kts | 334° |
| 2026-05-05 23:19 | -41.45770 | 147.16642 | 26017 ft | 238 kts | 334° |
| 2026-05-05 23:19 | -41.44236 | 147.15809 | 26017 ft | 238 kts | 334° |
| 2026-05-05 23:19 | -41.42703 | 147.14976 | 26018 ft | 238 kts | 334° |
| 2026-05-05 23:20 | -41.41188 | 147.14155 | 26017 ft | 238 kts | 334° |
| 2026-05-05 23:20 | -41.39653 | 147.13322 | 26017 ft | 238 kts | 334° |
| 2026-05-05 23:20 | -41.38117 | 147.12490 | 25992 ft | 239 kts | 334° |
| 2026-05-05 23:20 | -41.36578 | 147.11656 | 25999 ft | 238 kts | 334° |
| 2026-05-05 23:21 | -41.35039 | 147.10825 | 26005 ft | 238 kts | 334° |
| 2026-05-05 23:21 | -41.33504 | 147.09993 | 26009 ft | 238 kts | 334° |
| 2026-05-05 23:21 | -41.31970 | 147.09164 | 26011 ft | 238 kts | 334° |
| 2026-05-05 23:21 | -41.30438 | 147.08335 | 26017 ft | 238 kts | 334° |
| 2026-05-05 23:22 | -41.28904 | 147.07507 | 26021 ft | 238 kts | 334° |
| 2026-05-05 23:22 | -41.27371 | 147.06679 | 26020 ft | 238 kts | 334° |
| 2026-05-05 23:22 | -41.25837 | 147.05851 | 26022 ft | 237 kts | 334° |
| 2026-05-05 23:22 | -41.24308 | 147.05027 | 26024 ft | 237 kts | 334° |
| 2026-05-05 23:23 | -41.22777 | 147.04201 | 26024 ft | 238 kts | 335° |
| 2026-05-05 23:23 | -41.21247 | 147.03377 | 26057 ft | 237 kts | 335° |
| 2026-05-05 23:23 | -41.19716 | 147.02552 | 26057 ft | 237 kts | 335° |
| 2026-05-05 23:23 | -41.18204 | 147.01738 | 26056 ft | 238 kts | 335° |
| 2026-05-05 23:24 | -41.16668 | 147.00912 | 26055 ft | 238 kts | 335° |
| 2026-05-05 23:24 | -41.15131 | 147.00085 | 26055 ft | 238 kts | 335° |
| 2026-05-05 23:24 | -41.13596 | 146.99260 | 26052 ft | 238 kts | 335° |
| 2026-05-05 23:24 | -41.12058 | 146.98435 | 26053 ft | 238 kts | 335° |
| 2026-05-05 23:25 | -41.10522 | 146.97609 | 26052 ft | 239 kts | 335° |
| 2026-05-05 23:25 | -41.08981 | 146.96782 | 26054 ft | 239 kts | 335° |
| 2026-05-05 23:25 | -41.07437 | 146.95954 | 26051 ft | 240 kts | 335° |
| 2026-05-05 23:25 | -41.05891 | 146.95125 | 26054 ft | 239 kts | 335° |
| 2026-05-05 23:26 | -41.04365 | 146.94308 | 26050 ft | 239 kts | 335° |
| 2026-05-05 23:26 | -41.02819 | 146.93480 | 26055 ft | 240 kts | 335° |
| 2026-05-05 23:26 | -41.01268 | 146.92649 | 26052 ft | 240 kts | 335° |
| 2026-05-05 23:26 | -40.99720 | 146.91821 | 26054 ft | 239 kts | 335° |
| 2026-05-05 23:27 | -40.98173 | 146.90994 | 26055 ft | 239 kts | 335° |
| 2026-05-05 23:27 | -40.97151 | 146.90448 | 26052 ft | 239 kts | 335° |
| 2026-05-05 23:27 | -40.95609 | 146.89624 | 26051 ft | 239 kts | 335° |
| 2026-05-05 23:27 | -40.94066 | 146.88799 | 26060 ft | 239 kts | 335° |
| 2026-05-05 23:28 | -40.92526 | 146.87978 | 26058 ft | 239 kts | 335° |
| 2026-05-05 23:28 | -40.90983 | 146.87154 | 26060 ft | 239 kts | 335° |
| 2026-05-05 23:28 | -40.89440 | 146.86332 | 26058 ft | 239 kts | 335° |
| 2026-05-05 23:28 | -40.87898 | 146.85509 | 26062 ft | 239 kts | 335° |
| 2026-05-05 23:29 | -40.86356 | 146.84688 | 26055 ft | 239 kts | 335° |
| 2026-05-05 23:29 | -40.84814 | 146.83868 | 26060 ft | 239 kts | 335° |
| 2026-05-05 23:29 | -40.83271 | 146.83046 | 26062 ft | 239 kts | 335° |
| 2026-05-05 23:29 | -40.81723 | 146.82223 | 26060 ft | 239 kts | 335° |
| 2026-05-05 23:30 | -40.80181 | 146.81402 | 26061 ft | 239 kts | 335° |
| 2026-05-05 23:30 | -40.78637 | 146.80583 | 26065 ft | 239 kts | 335° |
| 2026-05-05 23:30 | -40.77111 | 146.79772 | 26063 ft | 239 kts | 335° |
| 2026-05-05 23:30 | -40.75569 | 146.78953 | 26064 ft | 239 kts | 335° |
| 2026-05-05 23:31 | -40.74022 | 146.78133 | 26064 ft | 239 kts | 335° |
| 2026-05-05 23:31 | -40.72477 | 146.77313 | 26064 ft | 239 kts | 335° |
| 2026-05-05 23:31 | -40.70928 | 146.76492 | 26066 ft | 240 kts | 335° |
| 2026-05-05 23:31 | -40.69378 | 146.75671 | 26065 ft | 240 kts | 335° |
| 2026-05-05 23:32 | -40.67830 | 146.74852 | 26064 ft | 240 kts | 335° |
| 2026-05-05 23:32 | -40.66280 | 146.74031 | 26062 ft | 240 kts | 335° |
| 2026-05-05 23:32 | -40.64728 | 146.73211 | 26064 ft | 240 kts | 335° |
| 2026-05-05 23:32 | -40.63177 | 146.72390 | 26062 ft | 240 kts | 335° |
| 2026-05-05 23:33 | -40.61628 | 146.71572 | 26065 ft | 240 kts | 335° |
| 2026-05-05 23:33 | -40.60096 | 146.70763 | 26066 ft | 240 kts | 335° |
| 2026-05-05 23:33 | -40.58543 | 146.69942 | 26058 ft | 240 kts | 335° |
| 2026-05-05 23:33 | -40.56990 | 146.69124 | 26064 ft | 240 kts | 335° |
| 2026-05-05 23:34 | -40.55435 | 146.68303 | 26062 ft | 240 kts | 335° |
| 2026-05-05 23:34 | -40.53880 | 146.67484 | 26060 ft | 241 kts | 335° |
| 2026-05-05 23:34 | -40.52325 | 146.66664 | 26065 ft | 241 kts | 335° |
| 2026-05-05 23:34 | -40.50771 | 146.65846 | 26065 ft | 241 kts | 335° |
| 2026-05-05 23:35 | -40.49216 | 146.65027 | 26065 ft | 241 kts | 335° |
| 2026-05-05 23:35 | -40.47659 | 146.64209 | 26067 ft | 241 kts | 335° |
| 2026-05-05 23:35 | -40.46102 | 146.63390 | 26069 ft | 241 kts | 335° |
| 2026-05-05 23:35 | -40.44546 | 146.62572 | 26065 ft | 241 kts | 335° |
| 2026-05-05 23:36 | -40.42982 | 146.61751 | 26061 ft | 242 kts | 335° |
| 2026-05-05 23:36 | -40.41425 | 146.60933 | 26066 ft | 242 kts | 335° |
| 2026-05-05 23:36 | -40.39878 | 146.60122 | 26067 ft | 242 kts | 335° |
| 2026-05-05 23:36 | -40.38316 | 146.59302 | 26066 ft | 242 kts | 335° |
| 2026-05-05 23:37 | -40.36753 | 146.58483 | 26067 ft | 242 kts | 335° |
| 2026-05-05 23:37 | -40.35188 | 146.57662 | 26064 ft | 242 kts | 335° |
| 2026-05-05 23:37 | -40.33623 | 146.56843 | 26065 ft | 242 kts | 335° |
| 2026-05-05 23:37 | -40.32058 | 146.56024 | 26066 ft | 242 kts | 335° |
| 2026-05-05 23:38 | -40.30492 | 146.55205 | 26062 ft | 242 kts | 335° |
| 2026-05-05 23:38 | -40.28925 | 146.54386 | 26065 ft | 242 kts | 335° |
| 2026-05-05 23:38 | -40.27357 | 146.53566 | 26066 ft | 242 kts | 335° |
| 2026-05-05 23:38 | -40.25789 | 146.52747 | 26069 ft | 243 kts | 335° |
| 2026-05-05 23:39 | -40.24222 | 146.51928 | 26071 ft | 243 kts | 335° |
| 2026-05-05 23:39 | -40.22653 | 146.51110 | 26068 ft | 243 kts | 335° |
| 2026-05-05 23:39 | -40.21082 | 146.50291 | 26071 ft | 243 kts | 335° |
| 2026-05-05 23:39 | -40.19509 | 146.49470 | 26075 ft | 243 kts | 335° |
| 2026-05-05 23:40 | -40.17938 | 146.48652 | 26069 ft | 243 kts | 335° |
| 2026-05-05 23:40 | -40.16384 | 146.47842 | 26071 ft | 243 kts | 335° |
| 2026-05-05 23:40 | -40.14809 | 146.47023 | 26075 ft | 243 kts | 335° |
| 2026-05-05 23:40 | -40.13235 | 146.46203 | 26079 ft | 243 kts | 335° |
| 2026-05-05 23:41 | -40.11658 | 146.45383 | 26075 ft | 243 kts | 335° |
| 2026-05-05 23:41 | -40.10085 | 146.44566 | 26075 ft | 244 kts | 335° |
| 2026-05-05 23:41 | -40.08510 | 146.43747 | 26077 ft | 244 kts | 335° |
| 2026-05-05 23:41 | -40.06935 | 146.42930 | 26076 ft | 244 kts | 335° |
| 2026-05-05 23:42 | -40.05357 | 146.42110 | 26080 ft | 244 kts | 335° |
| 2026-05-05 23:42 | -40.03781 | 146.41293 | 26079 ft | 244 kts | 335° |
| 2026-05-05 23:42 | -40.02203 | 146.40475 | 26082 ft | 244 kts | 335° |
| 2026-05-05 23:42 | -40.00627 | 146.39658 | 26083 ft | 244 kts | 335° |
| 2026-05-05 23:43 | -39.99046 | 146.38839 | 26083 ft | 244 kts | 335° |
| 2026-05-05 23:43 | -39.97465 | 146.38026 | 26085 ft | 244 kts | 335° |
| 2026-05-05 23:43 | -39.95880 | 146.37211 | 26087 ft | 244 kts | 335° |
| 2026-05-05 23:43 | -39.94299 | 146.36396 | 26088 ft | 244 kts | 335° |
| 2026-05-05 23:44 | -39.92738 | 146.35593 | 26089 ft | 245 kts | 335° |
| 2026-05-05 23:44 | -39.91148 | 146.34775 | 26092 ft | 245 kts | 335° |
| 2026-05-05 23:44 | -39.89559 | 146.33959 | 26094 ft | 245 kts | 335° |
| 2026-05-05 23:44 | -39.87978 | 146.33146 | 26092 ft | 245 kts | 335° |
| 2026-05-05 23:45 | -39.86391 | 146.32331 | 26095 ft | 245 kts | 335° |
| 2026-05-05 23:45 | -39.84806 | 146.31517 | 26098 ft | 245 kts | 336° |
| 2026-05-05 23:45 | -39.83219 | 146.30704 | 26096 ft | 245 kts | 335° |
| 2026-05-05 23:45 | -39.81628 | 146.29887 | 26098 ft | 245 kts | 336° |
| 2026-05-05 23:46 | -39.80038 | 146.29072 | 26102 ft | 245 kts | 336° |
| 2026-05-05 23:46 | -39.78450 | 146.28259 | 26099 ft | 246 kts | 336° |
| 2026-05-05 23:46 | -39.76866 | 146.27448 | 26103 ft | 249 kts | 335° |
| 2026-05-05 23:46 | -39.75245 | 146.26617 | 26100 ft | 251 kts | 335° |
| 2026-05-05 23:47 | -39.73612 | 146.25783 | 26096 ft | 251 kts | 336° |
| 2026-05-05 23:47 | -39.71992 | 146.24956 | 26101 ft | 250 kts | 336° |
| 2026-05-05 23:47 | -39.70376 | 146.24129 | 26101 ft | 249 kts | 336° |
| 2026-05-05 23:47 | -39.68766 | 146.23308 | 26104 ft | 248 kts | 336° |
| 2026-05-05 23:48 | -39.67154 | 146.22484 | 26103 ft | 248 kts | 336° |
| 2026-05-05 23:48 | -39.65548 | 146.21665 | 26102 ft | 248 kts | 336° |
| 2026-05-05 23:48 | -39.63964 | 146.20857 | 26104 ft | 248 kts | 336° |
| 2026-05-05 23:48 | -39.62360 | 146.20040 | 26108 ft | 248 kts | 336° |
| 2026-05-05 23:49 | -39.60755 | 146.19222 | 26106 ft | 248 kts | 336° |
| 2026-05-05 23:49 | -39.59152 | 146.18405 | 26105 ft | 248 kts | 336° |
| 2026-05-05 23:49 | -39.57548 | 146.17590 | 26105 ft | 247 kts | 336° |
| 2026-05-05 23:49 | -39.55943 | 146.16773 | 26106 ft | 247 kts | 336° |
| 2026-05-05 23:50 | -39.54334 | 146.15955 | 26107 ft | 247 kts | 336° |
| 2026-05-05 23:50 | -39.52732 | 146.15140 | 26105 ft | 247 kts | 336° |
| 2026-05-05 23:50 | -39.51129 | 146.14326 | 26103 ft | 247 kts | 336° |
| 2026-05-05 23:50 | -39.49544 | 146.13522 | 26102 ft | 248 kts | 336° |
| 2026-05-05 23:51 | -39.47940 | 146.12708 | 26103 ft | 247 kts | 336° |
| 2026-05-05 23:51 | -39.46337 | 146.11894 | 26105 ft | 248 kts | 336° |
| 2026-05-05 23:51 | -39.44731 | 146.11081 | 26108 ft | 247 kts | 336° |
| 2026-05-05 23:51 | -39.43129 | 146.10269 | 26108 ft | 248 kts | 336° |
| 2026-05-05 23:52 | -39.41521 | 146.09455 | 26109 ft | 248 kts | 336° |
| 2026-05-05 23:52 | -39.39917 | 146.08642 | 26110 ft | 248 kts | 336° |
| 2026-05-05 23:52 | -39.38313 | 146.07831 | 26111 ft | 248 kts | 336° |
| 2026-05-05 23:52 | -39.36706 | 146.07018 | 26108 ft | 248 kts | 336° |
| 2026-05-05 23:53 | -39.35100 | 146.06207 | 26115 ft | 248 kts | 336° |
| 2026-05-05 23:53 | -39.33491 | 146.05394 | 26113 ft | 248 kts | 336° |
| 2026-05-05 23:53 | -39.31884 | 146.04582 | 26116 ft | 248 kts | 336° |
| 2026-05-05 23:53 | -39.30296 | 146.03781 | 26114 ft | 248 kts | 336° |
| 2026-05-05 23:54 | -39.28684 | 146.02968 | 26115 ft | 248 kts | 336° |
| 2026-05-05 23:54 | -39.27076 | 146.02158 | 26118 ft | 248 kts | 336° |
| 2026-05-05 23:54 | -39.25468 | 146.01347 | 26122 ft | 248 kts | 336° |
| 2026-05-05 23:54 | -39.23859 | 146.00537 | 26118 ft | 248 kts | 336° |
| 2026-05-05 23:55 | -39.22253 | 145.99728 | 26118 ft | 248 kts | 336° |
| 2026-05-05 23:55 | -39.20640 | 145.98916 | 26120 ft | 248 kts | 336° |
| 2026-05-05 23:55 | -39.19028 | 145.98106 | 26123 ft | 248 kts | 336° |
| 2026-05-05 23:55 | -39.17418 | 145.97296 | 26125 ft | 249 kts | 336° |
| 2026-05-05 23:56 | -39.15806 | 145.96487 | 26123 ft | 249 kts | 336° |
| 2026-05-05 23:56 | -39.14195 | 145.95677 | 26121 ft | 249 kts | 336° |
| 2026-05-05 23:56 | -39.12581 | 145.94867 | 26125 ft | 249 kts | 336° |
| 2026-05-05 23:56 | -39.10989 | 145.94068 | 26122 ft | 249 kts | 336° |
| 2026-05-05 23:57 | -39.09375 | 145.93259 | 26128 ft | 249 kts | 336° |
| 2026-05-05 23:57 | -39.07762 | 145.92451 | 26128 ft | 249 kts | 336° |
| 2026-05-05 23:57 | -39.06137 | 145.91636 | 25983 ft | 254 kts | 336° |
| 2026-05-05 23:57 | -39.04455 | 145.90793 | 25672 ft | 263 kts | 336° |
| 2026-05-05 23:58 | -39.02726 | 145.89927 | 25325 ft | 270 kts | 336° |
| 2026-05-05 23:58 | -39.00954 | 145.89042 | 24968 ft | 274 kts | 336° |
| 2026-05-05 23:58 | -38.99185 | 145.88158 | 24610 ft | 277 kts | 336° |
| 2026-05-05 23:58 | -38.97375 | 145.87253 | 24243 ft | 280 kts | 337° |
| 2026-05-05 23:59 | -38.95553 | 145.86344 | 23870 ft | 282 kts | 337° |
| 2026-05-05 23:59 | -38.93722 | 145.85430 | 23467 ft | 283 kts | 337° |
| 2026-05-05 23:59 | -38.91877 | 145.84510 | 23084 ft | 283 kts | 337° |
| 2026-05-05 23:59 | -38.90042 | 145.83595 | 22710 ft | 283 kts | 337° |
| 2026-05-06 00:00 | -38.88210 | 145.82683 | 22335 ft | 282 kts | 337° |
| 2026-05-06 00:00 | -38.86379 | 145.81770 | 21964 ft | 282 kts | 337° |
| 2026-05-06 00:00 | -38.84546 | 145.80859 | 21584 ft | 282 kts | 337° |
| 2026-05-06 00:00 | -38.82713 | 145.79946 | 21215 ft | 283 kts | 337° |
| 2026-05-06 00:01 | -38.80876 | 145.79034 | 20844 ft | 283 kts | 337° |
| 2026-05-06 00:01 | -38.79037 | 145.78119 | 20479 ft | 283 kts | 337° |
| 2026-05-06 00:01 | -38.77223 | 145.77219 | 20125 ft | 283 kts | 337° |
| 2026-05-06 00:01 | -38.75384 | 145.76305 | 19759 ft | 283 kts | 337° |
| 2026-05-06 00:02 | -38.73551 | 145.75398 | 19382 ft | 282 kts | 337° |
| 2026-05-06 00:02 | -38.71722 | 145.74489 | 19022 ft | 282 kts | 337° |
| 2026-05-06 00:02 | -38.69894 | 145.73584 | 18641 ft | 281 kts | 337° |
| 2026-05-06 00:02 | -38.68076 | 145.72684 | 18251 ft | 278 kts | 337° |
| 2026-05-06 00:03 | -38.66276 | 145.71793 | 17878 ft | 276 kts | 337° |
| 2026-05-06 00:03 | -38.64493 | 145.70912 | 17513 ft | 273 kts | 336° |
| 2026-05-06 00:03 | -38.62724 | 145.70036 | 17155 ft | 272 kts | 336° |
| 2026-05-06 00:03 | -38.60985 | 145.69178 | 16798 ft | 270 kts | 336° |
| 2026-05-06 00:04 | -38.59230 | 145.68309 | 16443 ft | 270 kts | 336° |
| 2026-05-06 00:04 | -38.57478 | 145.67446 | 16087 ft | 269 kts | 336° |
| 2026-05-06 00:04 | -38.55733 | 145.66584 | 15731 ft | 269 kts | 336° |
| 2026-05-06 00:04 | -38.53989 | 145.65725 | 15376 ft | 269 kts | 336° |
| 2026-05-06 00:05 | -38.50506 | 145.64009 | 14665 ft | 266 kts | 336° |
| 2026-05-06 00:05 | -38.48780 | 145.63158 | 14317 ft | 265 kts | 336° |
| 2026-05-06 00:05 | -38.47106 | 145.62223 | 13972 ft | 261 kts | 326° |
| 2026-05-06 00:06 | -38.45700 | 145.60777 | 13604 ft | 258 kts | 317° |
| 2026-05-06 00:06 | -38.44340 | 145.59295 | 13262 ft | 257 kts | 319° |
| 2026-05-06 00:06 | -38.42988 | 145.57862 | 12922 ft | 255 kts | 318° |
| 2026-05-06 00:06 | -38.41640 | 145.56392 | 12590 ft | 254 kts | 318° |
| 2026-05-06 00:07 | -38.40295 | 145.54927 | 12256 ft | 254 kts | 318° |
| 2026-05-06 00:07 | -38.38945 | 145.53463 | 11920 ft | 254 kts | 318° |
| 2026-05-06 00:07 | -38.37601 | 145.52008 | 11585 ft | 253 kts | 317° |
| 2026-05-06 00:07 | -38.36261 | 145.50556 | 11258 ft | 252 kts | 317° |
| 2026-05-06 00:08 | -38.34922 | 145.49108 | 10921 ft | 252 kts | 317° |
| 2026-05-06 00:08 | -38.33600 | 145.47676 | 10824 ft | 244 kts | 317° |
| 2026-05-06 00:08 | -38.32324 | 145.46296 | 10692 ft | 239 kts | 317° |
| 2026-05-06 00:08 | -38.31050 | 145.44919 | 10407 ft | 241 kts | 317° |
| 2026-05-06 00:09 | -38.29766 | 145.43528 | 10095 ft | 244 kts | 317° |
| 2026-05-06 00:09 | -38.28481 | 145.42143 | 9761 ft | 245 kts | 317° |
| 2026-05-06 00:09 | -38.27180 | 145.40737 | 9437 ft | 246 kts | 317° |
| 2026-05-06 00:09 | -38.25872 | 145.39327 | 9108 ft | 247 kts | 317° |
| 2026-05-06 00:10 | -38.24561 | 145.37911 | 8784 ft | 247 kts | 317° |
| 2026-05-06 00:10 | -38.23249 | 145.36499 | 8460 ft | 248 kts | 317° |
| 2026-05-06 00:10 | -38.21931 | 145.35079 | 8133 ft | 248 kts | 317° |
| 2026-05-06 00:10 | -38.20700 | 145.33553 | 7812 ft | 247 kts | 307° |
| 2026-05-06 00:11 | -38.19709 | 145.31777 | 7502 ft | 246 kts | 302° |
| 2026-05-06 00:11 | -38.18703 | 145.30008 | 7198 ft | 247 kts | 306° |
| 2026-05-06 00:11 | -38.17617 | 145.28321 | 6887 ft | 242 kts | 307° |
| 2026-05-06 00:11 | -38.16572 | 145.26690 | 6565 ft | 234 kts | 306° |
| 2026-05-06 00:12 | -38.15565 | 145.25086 | 6226 ft | 229 kts | 306° |
| 2026-05-06 00:12 | -38.14577 | 145.23513 | 5893 ft | 226 kts | 306° |
| 2026-05-06 00:12 | -38.13600 | 145.21964 | 5551 ft | 223 kts | 306° |
| 2026-05-06 00:12 | -38.12647 | 145.20452 | 5228 ft | 221 kts | 306° |
| 2026-05-06 00:13 | -38.11689 | 145.18938 | 4906 ft | 214 kts | 306° |
| 2026-05-06 00:13 | -38.10782 | 145.17506 | 4574 ft | 203 kts | 306° |
| 2026-05-06 00:13 | -38.09921 | 145.16143 | 4255 ft | 191 kts | 307° |
| 2026-05-06 00:13 | -38.09128 | 145.14887 | 4008 ft | 175 kts | 306° |
| 2026-05-06 00:14 | -38.08385 | 145.13712 | 3756 ft | 166 kts | 306° |
| 2026-05-06 00:14 | -38.07912 | 145.12963 | 3587 ft | 163 kts | 306° |
| 2026-05-06 00:14 | -38.07208 | 145.11851 | 3335 ft | 160 kts | 306° |
| 2026-05-06 00:14 | -38.06373 | 145.10939 | 3059 ft | 162 kts | 331° |
| 2026-05-06 00:15 | -38.05270 | 145.10623 | 2773 ft | 165 kts | 352° |
| 2026-05-06 00:15 | -38.04126 | 145.10540 | 2509 ft | 164 kts | 351° |
| 2026-05-06 00:15 | -38.02992 | 145.10436 | 2253 ft | 164 kts | 352° |
| 2026-05-06 00:15 | -38.01881 | 145.10345 | 1895 ft | 156 kts | 352° |
| 2026-05-06 00:16 | -38.00800 | 145.10277 | 1286 ft | 152 kts | 351° |
| 2026-05-06 00:16 | -37.99775 | 145.10154 | 732 ft | 142 kts | 355° |
| 2026-05-06 00:16 | -37.98834 | 145.10070 | 238 ft | 132 kts | 355° |
| 2026-05-06 00:16 | -37.97984 | 145.10001 | 46 ft | 108 kts | 356° |
| 2026-05-06 00:17 | -37.97686 | 145.09971 | 51 ft | 3 kts | 356° |
| 2026-05-06 00:17 | -37.97629 | 145.09967 | 52 ft | 9 kts | 357° |
| 2026-05-06 00:17 | -37.97571 | 145.09964 | 53 ft | 7 kts | 356° |
| 2026-05-06 00:17 | -37.97534 | 145.09949 | 53 ft | 5 kts | 325° |
| 2026-05-06 00:18 | -37.97483 | 145.09898 | 48 ft | 12 kts | 321° |
| 2026-05-06 00:18 | -37.97420 | 145.09836 | 52 ft | 11 kts | 323° |
| 2026-05-06 00:18 | -37.97368 | 145.09787 | 52 ft | 8 kts | 322° |
| 2026-05-06 00:18 | -37.97343 | 145.09752 | 55 ft | 3 kts | 269° |
| 2026-05-06 00:19 | -37.97345 | 145.09713 | 56 ft | 9 kts | 265° |
| 2026-05-06 00:19 | -37.97351 | 145.09628 | 57 ft | 9 kts | 252° |
| 2026-05-06 00:19 | -37.97411 | 145.09616 | 55 ft | 11 kts | 175° |
| 2026-05-06 00:19 | -37.97431 | 145.09568 | 54 ft | 7 kts | 289° |
| 2026-05-06 00:20 | -37.97422 | 145.09516 | 54 ft | 6 kts | 279° |
| 2026-05-06 00:20 | -37.97421 | 145.09471 | 54 ft | 4 kts | 239° |
| 2026-05-06 00:20 | -37.97447 | 145.09462 | 51 ft | 5 kts | 187° |
| 2026-05-06 00:20 | -37.97478 | 145.09466 | 53 ft | 4 kts | 86° |
| 2026-05-06 00:21 | -37.97478 | 145.09475 | 50 ft | 0 kts | 92° |
| 2026-05-06 00:21 | -37.97478 | 145.09479 | 51 ft | 0 kts | 102° |